Time,TemperatureF,DewpointF,PressureIn,WindDirection,WindDirectionDegrees,WindSpeedMPH,WindSpeedGustMPH,Humidity,HourlyPrecipIn,Conditions,Clouds,dailyrainin,SoftwareType,DateUTC
2013-02-19 00:00:00,52.0,46.4,30.22,SW,233,0.0,0.0,81,0.01,,---,0.00,VWS V13.01,2013-02-19 05:00:00,
2013-02-19 00:20:00,51.2,45.9,30.22,SW,233,0.0,0.0,82,0.01,,---,0.00,VWS V13.01,2013-02-19 05:20:00,
2013-02-19 00:39:00,51.3,46.3,30.22,SW,233,0.0,0.0,83,0.01,,---,0.00,VWS V13.01,2013-02-19 05:39:00,
2013-02-19 00:50:00,50.6,45.6,30.21,SW,233,0.0,0.0,83,0.00,,---,0.00,VWS V13.01,2013-02-19 05:50:00,
2013-02-19 01:09:00,50.5,45.5,30.21,SW,233,0.0,0.0,83,0.00,,---,0.00,VWS V13.01,2013-02-19 06:09:00,
2013-02-19 01:20:00,51.1,46.4,30.21,SW,233,0.0,0.0,84,0.00,,---,0.00,VWS V13.01,2013-02-19 06:20:00,
2013-02-19 01:39:00,51.2,46.5,30.21,SW,233,0.0,0.0,84,0.00,,---,0.00,VWS V13.01,2013-02-19 06:39:00,
2013-02-19 01:50:00,50.4,45.4,30.20,SW,233,0.0,0.0,83,0.00,,---,0.00,VWS V13.01,2013-02-19 06:50:00,
2013-02-19 02:09:00,50.1,45.5,30.20,SW,233,0.0,0.0,84,0.00,,---,0.00,VWS V13.01,2013-02-19 07:09:00,
2013-02-19 02:20:00,49.6,45.3,30.20,SW,233,0.0,0.0,85,0.00,,---,0.00,VWS V13.01,2013-02-19 07:20:00,
2013-02-19 02:39:00,49.4,45.1,30.19,SW,233,0.0,0.0,85,0.00,,---,0.00,VWS V13.01,2013-02-19 07:39:00,
2013-02-19 02:50:00,49.0,44.7,30.19,SW,233,0.0,0.0,85,0.00,,---,0.00,VWS V13.01,2013-02-19 07:50:00,
2013-02-19 03:09:00,48.9,44.9,30.19,SW,233,0.0,0.0,86,0.00,,---,0.00,VWS V13.01,2013-02-19 08:09:00,
2013-02-19 03:20:00,49.0,45.3,30.18,SW,233,0.0,0.0,87,0.00,,---,0.00,VWS V13.01,2013-02-19 08:20:00,
2013-02-19 03:39:00,49.1,45.4,30.19,SW,233,0.0,0.0,87,0.00,,---,0.00,VWS V13.01,2013-02-19 08:39:00,
2013-02-19 03:50:00,49.4,46.0,30.18,SW,233,0.0,0.0,88,0.00,,---,0.00,VWS V13.01,2013-02-19 08:50:00,
2013-02-19 04:09:00,49.7,46.3,30.18,SW,233,0.0,0.0,88,0.00,,---,0.00,VWS V13.01,2013-02-19 09:09:00,
2013-02-19 04:20:00,50.3,46.9,30.18,SW,233,0.0,0.0,88,0.00,,---,0.00,VWS V13.01,2013-02-19 09:20:00,
2013-02-19 04:39:00,50.5,47.1,30.18,SW,233,0.0,0.0,88,0.00,,---,0.00,VWS V13.01,2013-02-19 09:39:00,
2013-02-19 04:50:00,50.6,47.2,30.18,SW,233,0.0,0.0,88,0.00,,---,0.00,VWS V13.01,2013-02-19 09:50:00,
2013-02-19 05:09:00,50.5,47.1,30.18,SW,233,0.0,0.0,88,0.00,,---,0.00,VWS V13.01,2013-02-19 10:09:00,
2013-02-19 05:20:00,50.5,47.1,30.17,SW,233,0.0,0.0,88,0.00,,---,0.00,VWS V13.01,2013-02-19 10:20:00,
2013-02-19 05:39:00,50.5,47.1,30.18,SW,233,0.0,0.0,88,0.00,,---,0.00,VWS V13.01,2013-02-19 10:39:00,
2013-02-19 05:50:00,50.7,47.6,30.18,SW,233,0.0,0.0,89,0.00,,---,0.00,VWS V13.01,2013-02-19 10:50:00,
2013-02-19 06:09:00,51.1,48.0,30.18,SW,233,0.0,0.0,89,0.00,,---,0.00,VWS V13.01,2013-02-19 11:09:00,
2013-02-19 06:20:00,51.7,48.9,30.18,SW,233,0.0,0.0,90,0.00,,---,0.00,VWS V13.01,2013-02-19 11:20:00,
2013-02-19 06:39:00,52.0,49.2,30.18,SW,233,0.0,0.0,90,0.00,,---,0.00,VWS V13.01,2013-02-19 11:39:00,
2013-02-19 06:50:00,52.4,49.8,30.18,SW,233,0.0,0.0,91,0.00,,---,0.00,VWS V13.01,2013-02-19 11:50:00,
2013-02-19 07:09:00,52.4,49.8,30.18,SW,233,0.0,0.0,91,0.00,,---,0.00,VWS V13.01,2013-02-19 12:09:00,
2013-02-19 07:20:00,52.3,49.8,30.18,SW,233,0.0,0.0,91,0.00,,---,0.00,VWS V13.01,2013-02-19 12:20:00,
2013-02-19 07:39:00,52.4,49.8,30.18,SW,233,0.0,0.0,91,0.00,,---,0.00,VWS V13.01,2013-02-19 12:39:00,
2013-02-19 07:50:00,54.4,52.1,30.18,SW,233,0.0,0.0,92,0.00,,---,0.00,VWS V13.01,2013-02-19 12:50:00,
2013-02-19 08:09:00,56.0,53.7,30.18,SW,233,0.0,0.0,92,0.00,,---,0.00,VWS V13.01,2013-02-19 13:09:00,
2013-02-19 08:20:00,59.8,56.9,30.18,SSW,211,2.0,4.0,90,0.00,,---,0.00,VWS V13.01,2013-02-19 13:20:00,
2013-02-19 08:39:00,61.9,58.0,30.18,SSW,213,0.0,5.0,87,0.00,,---,0.00,VWS V13.01,2013-02-19 13:39:00,
2013-02-19 08:50:00,64.9,58.9,30.18,SW,230,0.0,5.0,81,0.00,,---,0.00,VWS V13.01,2013-02-19 13:50:00,
2013-02-19 09:09:00,65.8,58.8,30.18,WSW,241,0.0,9.0,78,0.00,,---,0.00,VWS V13.01,2013-02-19 14:09:00,
2013-02-19 09:20:00,67.9,58.2,30.19,WSW,245,8.0,14.0,71,0.00,,---,0.00,VWS V13.01,2013-02-19 14:20:00,
2013-02-19 09:39:00,68.4,58.2,30.20,SSW,213,0.0,14.0,70,0.00,,---,0.00,VWS V13.01,2013-02-19 14:39:00,
2013-02-19 09:50:00,69.5,58.5,30.19,WNW,296,6.0,11.0,68,0.00,,---,0.00,VWS V13.01,2013-02-19 14:50:00,
2013-02-19 10:09:00,70.2,57.9,30.19,WSW,242,3.0,11.0,65,0.00,,---,0.00,VWS V13.01,2013-02-19 15:09:00,
2013-02-19 10:20:00,70.7,56.6,30.19,SW,214,4.0,12.0,61,0.00,,---,0.00,VWS V13.01,2013-02-19 15:20:00,
2013-02-19 10:39:00,71.4,55.9,30.19,WSW,238,6.0,12.0,58,0.00,,---,0.00,VWS V13.01,2013-02-19 15:39:00,
2013-02-19 10:50:00,72.7,55.6,30.19,SW,214,5.0,15.0,55,0.00,,---,0.00,VWS V13.01,2013-02-19 15:50:00,
2013-02-19 11:09:00,72.7,55.6,30.19,SSW,212,11.0,15.0,55,0.00,,---,0.00,VWS V13.01,2013-02-19 16:09:00,
2013-02-19 11:20:00,73.1,55.5,30.18,WSW,245,0.0,14.0,54,0.00,,---,0.00,VWS V13.01,2013-02-19 16:20:00,
2013-02-19 11:39:00,74.7,56.5,30.18,WSW,257,11.0,14.0,53,0.00,,---,0.00,VWS V13.01,2013-02-19 16:39:00,
2013-02-19 11:50:00,75.3,54.3,30.17,West,267,0.0,19.0,48,0.00,,---,0.00,VWS V13.01,2013-02-19 16:50:00,
2013-02-19 12:09:00,75.3,53.7,30.17,SSW,210,3.0,19.0,47,0.00,,---,0.00,VWS V13.01,2013-02-19 17:09:00,
2013-02-19 12:20:00,75.3,54.8,30.16,SW,235,5.0,15.0,49,0.00,,---,0.00,VWS V13.01,2013-02-19 17:20:00,
2013-02-19 12:39:00,75.4,54.4,30.15,West,260,1.0,18.0,48,0.00,,---,0.00,VWS V13.01,2013-02-19 17:39:00,
2013-02-19 12:50:00,75.9,56.0,30.13,WSW,250,5.0,14.0,50,0.00,,---,0.00,VWS V13.01,2013-02-19 17:50:00,
2013-02-19 13:09:00,76.0,55.5,30.13,West,265,0.0,14.0,49,0.00,,---,0.00,VWS V13.01,2013-02-19 18:09:00,
2013-02-19 13:20:00,76.5,54.8,30.12,WSW,241,0.0,17.0,47,0.00,,---,0.00,VWS V13.01,2013-02-19 18:20:00,
2013-02-19 13:39:00,77.2,55.4,30.12,SW,236,5.0,17.0,47,0.00,,---,0.00,VWS V13.01,2013-02-19 18:39:00,
2013-02-19 13:50:00,77.1,55.3,30.10,WNW,283,4.0,16.0,47,0.00,,---,0.00,VWS V13.01,2013-02-19 18:50:00,
2013-02-19 14:09:00,77.6,55.2,30.10,ENE,63,1.0,17.0,46,0.00,,---,0.00,VWS V13.01,2013-02-19 19:09:00,
2013-02-19 14:20:00,77.4,55.0,30.09,West,275,4.0,18.0,46,0.00,,---,0.00,VWS V13.01,2013-02-19 19:20:00,
2013-02-19 14:39:00,77.4,55.6,30.09,SW,232,12.0,18.0,47,0.00,,---,0.00,VWS V13.01,2013-02-19 19:39:00,
2013-02-19 14:50:00,76.2,55.1,30.08,WNW,289,2.0,13.0,48,0.00,,---,0.00,VWS V13.01,2013-02-19 19:50:00,
2013-02-19 15:09:00,77.7,55.9,30.08,WNW,282,0.0,13.0,47,0.00,,---,0.00,VWS V13.01,2013-02-19 20:09:00,
2013-02-19 15:20:00,78.4,55.3,30.07,WNW,296,4.0,17.0,45,0.00,,---,0.00,VWS V13.01,2013-02-19 20:20:00,
2013-02-19 15:39:00,78.0,55.0,30.07,West,281,2.0,17.0,45,0.00,,---,0.00,VWS V13.01,2013-02-19 20:39:00,
2013-02-19 15:50:00,77.6,55.8,30.07,West,280,6.0,16.0,47,0.00,,---,0.00,VWS V13.01,2013-02-19 20:50:00,
2013-02-19 16:09:00,78.4,55.9,30.07,WNW,297,9.0,16.0,46,0.00,,---,0.00,VWS V13.01,2013-02-19 21:09:00,
2013-02-19 16:20:00,77.6,55.8,30.06,WNW,289,1.0,14.0,47,0.00,,---,0.00,VWS V13.01,2013-02-19 21:20:00,
2013-02-19 16:39:00,77.6,55.8,30.06,WNW,298,4.0,14.0,47,0.00,,---,0.00,VWS V13.01,2013-02-19 21:39:00,
2013-02-19 16:50:00,76.8,56.8,30.06,West,269,0.0,8.0,50,0.00,,---,0.00,VWS V13.01,2013-02-19 21:50:00,
2013-02-19 17:09:00,77.5,56.9,30.06,WNW,292,2.0,8.0,49,0.00,,---,0.00,VWS V13.01,2013-02-19 22:09:00,
2013-02-19 17:20:00,77.0,56.4,30.07,WNW,294,3.0,9.0,49,0.00,,---,0.00,VWS V13.01,2013-02-19 22:20:00,
2013-02-19 17:39:00,76.4,55.8,30.07,NW,308,0.0,9.0,49,0.00,,---,0.00,VWS V13.01,2013-02-19 22:39:00,
2013-02-19 17:50:00,75.3,56.5,30.07,WNW,302,0.0,3.0,52,0.00,,---,0.00,VWS V13.01,2013-02-19 22:50:00,
2013-02-19 18:09:00,75.0,56.7,30.08,WNW,302,0.0,3.0,53,0.00,,---,0.00,VWS V13.01,2013-02-19 23:09:00,
2013-02-19 18:20:00,73.6,56.5,30.08,WNW,302,0.0,2.0,55,0.00,,---,0.00,VWS V13.01,2013-02-19 23:20:00,
2013-02-19 18:39:00,73.0,56.4,30.08,WNW,302,0.0,2.0,56,0.00,,---,0.00,VWS V13.01,2013-02-19 23:39:00,
2013-02-19 18:50:00,72.1,56.0,30.09,WNW,302,0.0,0.0,57,0.00,,---,0.00,VWS V13.01,2013-02-19 23:50:00,
2013-02-19 19:09:00,71.5,56.0,30.08,WNW,302,0.0,0.0,58,0.00,,---,0.00,VWS V13.01,2013-02-20 00:09:00,
2013-02-19 19:20:00,70.5,56.0,30.09,WNW,302,0.0,0.0,60,0.00,,---,0.00,VWS V13.01,2013-02-20 00:20:00,
2013-02-19 19:39:00,70.0,56.0,30.09,WNW,302,0.0,0.0,61,0.00,,---,0.00,VWS V13.01,2013-02-20 00:39:00,
2013-02-19 19:50:00,68.7,55.6,30.09,WNW,302,0.0,0.0,63,0.00,,---,0.00,VWS V13.01,2013-02-20 00:50:00,
2013-02-19 20:09:00,68.3,55.7,30.09,WNW,302,0.0,0.0,64,0.00,,---,0.00,VWS V13.01,2013-02-20 01:09:00,
2013-02-19 20:30:00,67.3,56.0,30.09,WNW,302,0.0,0.0,67,0.00,,---,0.00,VWS V13.01,2013-02-20 01:30:00,
2013-02-19 20:39:00,66.8,55.5,30.10,WNW,302,0.0,0.0,67,0.00,,---,0.00,VWS V13.01,2013-02-20 01:39:00,
2013-02-19 21:00:00,64.9,55.3,30.10,WNW,302,0.0,0.0,71,0.00,,---,0.00,VWS V13.01,2013-02-20 02:00:00,
2013-02-19 21:09:00,64.6,55.4,30.11,WNW,302,0.0,0.0,72,0.00,,---,0.00,VWS V13.01,2013-02-20 02:09:00,
2013-02-19 21:30:00,63.4,54.6,30.11,WNW,302,0.0,0.0,73,0.00,,---,0.00,VWS V13.01,2013-02-20 02:30:00,
2013-02-19 21:39:00,62.9,54.5,30.11,WNW,302,0.0,0.0,74,0.00,,---,0.00,VWS V13.01,2013-02-20 02:39:00,
2013-02-19 22:00:00,61.6,54.3,30.11,WNW,302,0.0,0.0,77,0.00,,---,0.00,VWS V13.01,2013-02-20 03:00:00,
2013-02-19 22:09:00,61.2,54.3,30.11,WNW,302,0.0,0.0,78,0.00,,---,0.00,VWS V13.01,2013-02-20 03:09:00,
2013-02-19 22:30:00,60.0,54.2,30.10,WNW,302,0.0,0.0,81,0.00,,---,0.00,VWS V13.01,2013-02-20 03:30:00,
2013-02-19 22:39:00,59.8,54.0,30.10,WNW,302,0.0,0.0,81,0.00,,---,0.00,VWS V13.01,2013-02-20 03:39:00,
2013-02-19 23:00:00,59.0,53.5,30.10,WNW,302,0.0,0.0,82,0.00,,---,0.00,VWS V13.01,2013-02-20 04:00:00,
2013-02-19 23:09:00,59.1,54.0,30.10,WNW,302,0.0,0.0,83,0.00,,---,0.00,VWS V13.01,2013-02-20 04:09:00,
2013-02-19 23:30:00,60.0,54.5,30.09,WNW,302,0.0,0.0,82,0.00,,---,0.00,VWS V13.01,2013-02-20 04:30:00,
2013-02-19 23:39:00,60.4,54.5,30.09,WNW,302,0.0,0.0,81,0.00,,---,0.00,VWS V13.01,2013-02-20 04:39:00,